createdAt,value
2022-08-14T00:01:31.605Z,33.18
2022-08-14T00:03:58.866Z,33.19
2022-08-14T00:06:28.869Z,33.17
2022-08-14T00:08:58.959Z,33.16
2022-08-14T00:11:31.288Z,33.12
2022-08-14T00:14:02.103Z,32.91
2022-08-14T00:16:41.402Z,32.83
2022-08-14T00:19:19.725Z,32.87
2022-08-14T00:21:50.997Z,32.83
2022-08-14T00:24:23.227Z,32.50
2022-08-14T00:26:57.151Z,32.49
2022-08-14T00:29:25.552Z,32.48
2022-08-14T00:31:56.619Z,32.26
2022-08-14T00:34:35.398Z,32.18
2022-08-14T00:37:05.542Z,32.17
2022-08-14T00:39:32.871Z,32.11
2022-08-14T00:41:59.742Z,32.08
2022-08-14T00:44:32.465Z,31.90
2022-08-14T00:47:10.832Z,31.85
2022-08-14T00:49:42.561Z,31.79
2022-08-14T00:52:14.108Z,31.54
2022-08-14T00:54:45.795Z,31.60
2022-08-14T00:57:12.652Z,31.64
2022-08-14T00:59:39.548Z,31.83
2022-08-14T01:02:09.221Z,31.91
2022-08-14T01:04:54.300Z,31.73
2022-08-14T01:07:23.925Z,31.88
2022-08-14T01:09:58.763Z,31.84
2022-08-14T01:12:40.763Z,31.90
2022-08-14T01:15:09.700Z,31.94
2022-08-14T01:17:54.876Z,31.71
2022-08-14T01:20:40.846Z,31.80
2022-08-14T01:23:18.515Z,31.75
2022-08-14T01:25:51.530Z,31.61
2022-08-14T01:28:46.959Z,31.48
2022-08-14T01:31:15.822Z,31.22
2022-08-14T01:35:15.944Z,31.50
2022-08-14T01:36:38.338Z,31.60
2022-08-14T01:39:12.902Z,31.35
2022-08-14T01:41:41.936Z,31.56
2022-08-14T01:44:32.992Z,31.82
2022-08-14T01:47:12.162Z,31.78
2022-08-14T01:49:46.088Z,31.89
2022-08-14T01:52:34.480Z,31.91
2022-08-14T01:55:14.469Z,31.76
2022-08-14T01:57:49.739Z,31.71
2022-08-14T02:00:29.756Z,31.62
2022-08-14T02:03:02.899Z,31.56
2022-08-14T02:05:32.989Z,31.71
2022-08-14T02:08:09.609Z,31.73
2022-08-14T02:10:46.529Z,31.78
2022-08-14T02:13:17.499Z,31.82
2022-08-14T02:15:45.385Z,31.96
2022-08-14T02:18:16.449Z,31.92
2022-08-14T02:20:45.130Z,31.96
2022-08-14T02:23:14.119Z,31.95
2022-08-14T02:25:42.522Z,31.91
2022-08-14T02:28:25.300Z,31.86
2022-08-14T02:30:56.597Z,31.76
2022-08-14T02:33:23.908Z,31.88
2022-08-14T02:35:53.486Z,31.88
2022-08-14T02:38:29.645Z,31.88
2022-08-14T02:41:00.768Z,31.83
2022-08-14T02:43:37.218Z,31.80
2022-08-14T02:46:20.153Z,31.90
2022-08-14T02:49:01.893Z,31.81
2022-08-14T02:51:33.935Z,31.84
2022-08-14T02:54:01.697Z,31.83
2022-08-14T02:57:13.922Z,31.78
2022-08-14T02:59:17.967Z,31.72
2022-08-14T03:01:50.842Z,31.48
2022-08-14T03:04:22.315Z,31.30
2022-08-14T03:06:57.797Z,31.17
2022-08-14T03:09:41.873Z,30.89
2022-08-14T03:12:30.842Z,30.67
2022-08-14T03:14:59.622Z,30.58
2022-08-14T03:17:26.871Z,30.57
2022-08-14T03:19:58.851Z,30.31
2022-08-14T03:22:29.975Z,30.26
2022-08-14T03:24:57.075Z,30.44
2022-08-14T03:27:26.622Z,30.53
2022-08-14T03:30:05.267Z,30.34
2022-08-14T03:32:33.402Z,30.46
2022-08-14T03:35:00.258Z,30.38
2022-08-14T03:37:51.891Z,30.35
2022-08-14T03:40:18.589Z,30.39
2022-08-14T03:42:45.491Z,30.11
2022-08-14T03:45:26.479Z,30.19
2022-08-14T03:48:02.169Z,30.25
2022-08-14T03:50:31.414Z,30.19
2022-08-14T03:53:03.096Z,29.81
2022-08-14T03:55:30.747Z,29.86
2022-08-14T03:57:58.299Z,29.82
2022-08-14T04:00:44.313Z,29.68
2022-08-14T04:03:19.647Z,29.62
2022-08-14T04:05:51.087Z,29.39
2022-08-14T04:08:29.729Z,29.48
2022-08-14T04:10:59.482Z,29.37
2022-08-14T04:13:31.654Z,29.51
2022-08-14T04:16:12.464Z,29.56
2022-08-14T04:18:42.534Z,29.51
2022-08-14T04:21:10.344Z,29.44
2022-08-14T04:23:37.593Z,29.73
2022-08-14T04:26:14.978Z,29.32
2022-08-14T04:29:09.078Z,29.35
2022-08-14T04:32:57.335Z,29.54
2022-08-14T04:34:28.279Z,29.49
2022-08-14T04:37:22.354Z,29.62
2022-08-14T04:40:12.934Z,29.59
2022-08-14T04:43:00.373Z,29.67
2022-08-14T04:45:32.861Z,29.74
2022-08-14T04:48:39.504Z,30.00
2022-08-14T04:51:03.527Z,30.06
2022-08-14T04:53:34.936Z,29.98
2022-08-14T04:56:05.788Z,29.80
2022-08-14T04:58:37.595Z,30.05
2022-08-14T05:01:12.727Z,30.26
2022-08-14T05:03:44.775Z,30.31
2022-08-14T05:06:37.110Z,30.31
2022-08-14T05:09:00.033Z,30.57
2022-08-14T05:11:28.082Z,30.82
2022-08-14T05:14:16.971Z,31.06
2022-08-14T05:16:44.027Z,31.13
2022-08-14T05:19:24.814Z,30.92
2022-08-14T05:22:17.835Z,31.38
2022-08-14T05:24:50.634Z,32.33
2022-08-14T05:27:22.847Z,33.56
2022-08-14T05:29:56.947Z,34.59
2022-08-14T05:32:27.440Z,35.87
2022-08-14T05:34:59.061Z,36.68
2022-08-14T05:37:28.169Z,37.02
2022-08-14T05:39:55.219Z,37.85
2022-08-14T05:42:28.967Z,38.51
2022-08-14T05:44:56.542Z,39.54
2022-08-14T05:47:24.392Z,40.30
2022-08-14T05:49:58.550Z,40.83
2022-08-14T05:52:26.372Z,41.26
2022-08-14T05:55:11.323Z,41.17
2022-08-14T05:57:50.900Z,41.08
2022-08-14T06:00:24.968Z,40.85
2022-08-14T06:02:56.598Z,41.53
2022-08-14T06:05:24.285Z,42.27
2022-08-14T06:07:55.871Z,42.15
2022-08-14T06:10:24.126Z,42.82
2022-08-14T06:12:56.831Z,43.50
2022-08-14T06:15:29.424Z,43.47
2022-08-14T06:17:59.057Z,43.03
2022-08-14T06:20:28.108Z,43.32
2022-08-14T06:22:55.408Z,43.99
2022-08-14T06:25:23.388Z,44.65
2022-08-14T06:27:52.048Z,44.53
2022-08-14T06:30:41.786Z,43.16
2022-08-14T06:33:11.933Z,41.84
2022-08-14T06:35:44.074Z,40.52
2022-08-14T06:38:18.528Z,39.23
2022-08-14T06:40:46.063Z,38.80
2022-08-14T06:43:15.514Z,38.23
2022-08-14T06:45:50.317Z,37.38
2022-08-14T06:48:23.842Z,36.52
2022-08-14T06:50:54.910Z,35.91
2022-08-14T06:53:22.473Z,36.20
2022-08-14T06:56:00.505Z,36.40
2022-08-14T06:58:29.423Z,36.23
2022-08-14T07:01:19.267Z,36.42
2022-08-14T07:04:12.881Z,36.58
2022-08-14T07:06:51.808Z,36.26
2022-08-14T07:09:23.204Z,36.24
2022-08-14T07:11:51.549Z,36.54
2022-08-14T07:14:18.485Z,36.08
2022-08-14T07:16:45.047Z,36.34
2022-08-14T07:19:12.266Z,36.67
2022-08-14T07:21:39.479Z,36.89
2022-08-14T07:24:06.473Z,37.04
2022-08-14T07:26:36.608Z,37.13
2022-08-14T07:29:05.840Z,37.67
2022-08-14T07:31:33.475Z,38.17
2022-08-14T07:34:00.100Z,38.74
2022-08-14T07:36:31.330Z,40.02
2022-08-14T07:39:00.330Z,41.55
2022-08-14T07:41:33.959Z,43.12
2022-08-14T07:44:29.669Z,44.56
2022-08-14T07:46:50.078Z,45.83
2022-08-14T07:49:18.172Z,46.71
2022-08-14T07:51:45.875Z,46.83
2022-08-14T07:54:23.501Z,47.44
2022-08-14T07:57:11.764Z,47.57
2022-08-14T07:59:42.269Z,48.06
2022-08-14T08:02:19.498Z,48.19
2022-08-14T08:04:50.650Z,48.37
2022-08-14T08:07:21.684Z,48.11
2022-08-14T08:09:53.226Z,48.58
2022-08-14T08:12:21.706Z,48.63
2022-08-14T08:14:56.858Z,48.21
2022-08-14T08:17:34.686Z,46.81
2022-08-14T08:20:11.632Z,45.10
2022-08-14T08:22:40.765Z,43.66
2022-08-14T08:25:13.454Z,42.07
2022-08-14T08:27:44.661Z,41.12
2022-08-14T08:30:12.305Z,40.84
2022-08-14T08:32:43.647Z,40.27
2022-08-14T08:35:17.542Z,40.22
2022-08-14T08:37:45.031Z,39.82
2022-08-14T08:40:31.023Z,39.91
2022-08-14T08:42:59.189Z,39.57
2022-08-14T08:45:27.811Z,39.13
2022-08-14T08:47:55.144Z,38.72
2022-08-14T08:50:31.764Z,39.46
2022-08-14T08:53:04.282Z,39.50
2022-08-14T08:55:43.800Z,39.79
2022-08-14T08:58:20.230Z,39.69
2022-08-14T09:00:58.568Z,39.62
2022-08-14T09:03:27.929Z,39.99
2022-08-14T09:06:01.450Z,40.82
2022-08-14T09:08:34.003Z,41.30
2022-08-14T09:11:19.196Z,41.24
2022-08-14T09:13:53.103Z,41.61
2022-08-14T09:16:25.966Z,41.95
2022-08-14T09:18:54.887Z,41.83
2022-08-14T09:21:24.175Z,41.71
2022-08-14T09:24:29.478Z,41.99
2022-08-14T09:26:44.107Z,42.44
2022-08-14T09:29:16.199Z,42.32
2022-08-14T09:31:53.018Z,41.88
2022-08-14T09:34:27.928Z,41.65
2022-08-14T09:37:09.980Z,42.09
2022-08-14T09:40:20.570Z,41.90
2022-08-14T09:43:12.937Z,41.86
2022-08-14T09:45:53.232Z,40.63
2022-08-14T09:48:30.165Z,40.73
2022-08-14T09:54:19.096Z,40.75
2022-08-14T09:56:56.776Z,41.08
2022-08-14T09:59:28.361Z,40.71
2022-08-14T10:02:00.027Z,40.70
2022-08-14T10:04:36.484Z,40.00
2022-08-14T10:07:08.162Z,40.05
2022-08-14T10:09:57.589Z,39.62
2022-08-14T10:12:48.502Z,38.98
2022-08-14T10:15:21.221Z,39.77
2022-08-14T10:17:49.163Z,40.24
2022-08-14T10:20:40.648Z,40.65
2022-08-14T10:23:17.992Z,40.74
2022-08-14T10:25:48.578Z,40.26
2022-08-14T10:28:39.434Z,40.39
2022-08-14T10:31:03.410Z,41.35
2022-08-14T10:33:32.805Z,40.61
2022-08-14T10:36:00.624Z,39.85
2022-08-14T10:38:32.730Z,39.91
2022-08-14T10:41:18.011Z,40.59
2022-08-14T10:44:04.589Z,40.81
2022-08-14T10:47:36.587Z,41.08
2022-08-14T10:49:28.809Z,41.34
2022-08-14T10:52:02.505Z,40.66
2022-08-14T10:54:42.269Z,39.86
2022-08-14T10:57:20.014Z,40.02
2022-08-14T10:59:58.676Z,40.52
2022-08-14T11:02:53.925Z,40.57
2022-08-14T11:05:23.522Z,39.60
2022-08-14T11:07:57.084Z,39.36
2022-08-14T11:10:48.264Z,39.51
2022-08-14T11:13:21.357Z,39.56
2022-08-14T11:15:51.589Z,39.99
2022-08-14T11:18:20.550Z,40.36
2022-08-14T11:21:00.581Z,40.04
2022-08-14T11:23:38.113Z,39.98
2022-08-14T11:26:08.114Z,39.46
2022-08-14T11:28:47.239Z,39.45
2022-08-14T11:31:23.987Z,39.69
2022-08-14T11:33:57.569Z,39.65
2022-08-14T11:36:57.093Z,39.47
2022-08-14T11:39:34.890Z,39.37
2022-08-14T11:42:56.270Z,38.73
2022-08-14T11:45:00.251Z,39.04
2022-08-14T11:47:34.775Z,39.05
2022-08-14T11:50:37.119Z,38.89
2022-08-14T11:53:07.088Z,39.54
2022-08-14T11:55:38.419Z,39.29
2022-08-14T11:58:09.361Z,39.68
2022-08-14T12:00:52.660Z,40.07
2022-08-14T12:03:37.582Z,39.56
2022-08-14T12:06:29.125Z,39.81
2022-08-14T12:09:00.339Z,40.00
2022-08-14T12:11:43.237Z,39.72
2022-08-14T12:14:13.340Z,40.03
2022-08-14T12:17:12.069Z,40.40
2022-08-14T12:19:58.853Z,39.77
2022-08-14T12:22:44.033Z,39.89
2022-08-14T12:25:19.449Z,39.87
2022-08-14T12:27:53.374Z,40.75
2022-08-14T12:30:40.063Z,41.02
2022-08-14T12:33:25.505Z,41.16
2022-08-14T12:35:58.435Z,41.12
2022-08-14T12:38:38.066Z,41.13
2022-08-14T12:41:20.250Z,40.86
2022-08-14T12:43:51.591Z,40.89
2022-08-14T12:46:27.110Z,40.83
2022-08-14T12:48:55.902Z,40.86
2022-08-14T12:51:28.308Z,40.74
2022-08-14T12:53:59.458Z,40.63
2022-08-14T12:56:33.014Z,40.41
2022-08-14T12:59:00.314Z,39.90
2022-08-14T13:01:31.265Z,40.24
2022-08-14T13:04:15.629Z,39.42
2022-08-14T13:06:50.651Z,39.41
2022-08-14T13:09:19.166Z,39.50
2022-08-14T13:11:58.907Z,38.90
2022-08-14T13:14:40.853Z,38.77
2022-08-14T13:17:10.813Z,38.58
2022-08-14T13:19:40.822Z,39.11
2022-08-14T13:22:09.665Z,38.69
2022-08-14T13:24:39.423Z,38.98
2022-08-14T13:27:09.994Z,38.98
2022-08-14T13:29:46.812Z,39.08
2022-08-14T13:32:15.269Z,38.96
2022-08-14T13:34:43.758Z,39.40
2022-08-14T13:37:14.519Z,39.06
2022-08-14T13:39:57.099Z,39.55
2022-08-14T13:42:30.927Z,39.68
2022-08-14T13:45:02.253Z,39.93
2022-08-14T13:47:32.946Z,40.17
2022-08-14T13:50:02.775Z,39.42
2022-08-14T13:52:59.116Z,39.99
2022-08-14T13:55:28.885Z,40.00
2022-08-14T13:58:03.351Z,39.38
2022-08-14T14:00:52.957Z,39.21
2022-08-14T14:03:22.814Z,39.55
2022-08-14T14:05:54.367Z,39.23
2022-08-14T14:08:43.249Z,39.37
2022-08-14T14:11:13.253Z,39.71
2022-08-14T14:13:45.232Z,40.36
2022-08-14T14:16:15.381Z,39.88
2022-08-14T14:19:06.085Z,39.62
2022-08-14T14:21:36.134Z,39.88
2022-08-14T14:24:04.982Z,40.52
2022-08-14T14:26:33.330Z,40.18
2022-08-14T14:29:06.210Z,40.14
2022-08-14T14:31:36.474Z,40.45
2022-08-14T14:34:20.119Z,40.37
2022-08-14T14:36:55.451Z,39.92
2022-08-14T14:39:27.507Z,39.71
2022-08-14T14:41:59.602Z,39.24
2022-08-14T14:44:40.601Z,38.79
2022-08-14T14:47:13.801Z,39.50
2022-08-14T14:49:54.890Z,39.06
2022-08-14T14:52:26.866Z,39.05
2022-08-14T14:54:58.986Z,39.26
2022-08-14T14:57:35.351Z,39.28
2022-08-14T15:00:08.852Z,39.62
2022-08-14T15:02:43.290Z,39.48
2022-08-14T15:05:12.576Z,39.14
2022-08-14T15:07:40.185Z,38.84
2022-08-14T15:10:26.823Z,38.55
2022-08-14T15:12:59.995Z,38.75
2022-08-14T15:15:27.314Z,38.65
2022-08-14T15:17:54.749Z,38.47
2022-08-14T15:20:30.406Z,38.40
2022-08-14T15:23:00.933Z,38.51
2022-08-14T15:25:35.742Z,38.92
2022-08-14T15:28:02.427Z,38.49
2022-08-14T15:30:32.833Z,38.27
2022-08-14T15:32:59.799Z,38.57
2022-08-14T15:35:28.069Z,38.35
2022-08-14T15:38:10.162Z,38.61
2022-08-14T15:40:41.061Z,37.82
2022-08-14T15:43:12.974Z,37.82
2022-08-14T15:45:41.398Z,37.96
2022-08-14T15:48:08.268Z,38.07
2022-08-14T15:50:44.826Z,38.58
2022-08-14T15:53:15.785Z,38.90
2022-08-14T15:55:43.962Z,38.64
2022-08-14T15:58:14.319Z,38.67
2022-08-14T16:01:00.445Z,38.97
2022-08-14T16:03:37.239Z,38.55
2022-08-14T16:06:10.858Z,38.39
2022-08-14T16:08:45.042Z,37.92
2022-08-14T16:11:14.129Z,37.66
2022-08-14T16:13:43.270Z,37.83
2022-08-14T16:16:48.994Z,37.76
2022-08-14T16:19:19.145Z,37.92
2022-08-14T16:22:02.560Z,37.92
2022-08-14T16:25:01.983Z,38.38
2022-08-14T16:27:39.437Z,38.72
2022-08-14T16:30:20.478Z,38.90
2022-08-14T16:32:57.239Z,38.43
2022-08-14T16:35:42.489Z,38.35
2022-08-14T16:38:29.366Z,38.13
2022-08-14T16:41:21.928Z,38.22
2022-08-14T16:43:53.057Z,38.14
2022-08-14T16:46:22.337Z,38.07
2022-08-14T16:48:56.975Z,38.61
2022-08-14T16:51:26.047Z,39.27
2022-08-14T16:53:56.461Z,38.62
2022-08-14T16:56:28.123Z,38.99
2022-08-14T16:59:12.485Z,39.17
2022-08-14T17:01:42.353Z,39.39
2022-08-14T17:04:24.770Z,39.48
2022-08-14T17:06:55.240Z,39.16
2022-08-14T17:09:45.483Z,39.17
2022-08-14T17:12:29.107Z,39.56
2022-08-14T17:15:15.055Z,39.12
2022-08-14T17:17:54.474Z,39.00
2022-08-14T17:20:53.809Z,38.92
2022-08-14T17:23:12.194Z,38.57
2022-08-14T17:25:40.215Z,38.85
2022-08-14T17:28:50.038Z,38.97
2022-08-14T17:31:10.354Z,38.91
2022-08-14T17:33:44.824Z,39.08
2022-08-14T17:36:24.001Z,39.05
2022-08-14T17:39:11.935Z,38.97
2022-08-14T17:41:43.587Z,38.82
2022-08-14T17:44:22.023Z,38.64
2022-08-14T17:47:03.471Z,38.87
2022-08-14T17:49:32.893Z,38.74
2022-08-14T17:52:07.836Z,38.86
2022-08-14T17:54:45.165Z,38.95
2022-08-14T17:57:17.549Z,39.07
2022-08-14T17:59:48.106Z,39.27
2022-08-14T18:02:18.903Z,39.21
2022-08-14T18:04:47.162Z,39.18
2022-08-14T18:08:30.927Z,39.36
2022-08-14T18:10:53.149Z,39.20
2022-08-14T18:12:56.853Z,39.28
2022-08-14T18:15:35.518Z,39.38
2022-08-14T18:18:06.947Z,39.21
2022-08-14T18:21:40.674Z,39.18
2022-08-14T18:23:24.603Z,39.10
2022-08-14T18:25:53.556Z,39.12
2022-08-14T18:28:50.972Z,38.95
2022-08-14T18:31:21.218Z,38.78
2022-08-14T18:34:06.228Z,38.68
2022-08-14T18:36:56.728Z,38.71
2022-08-14T18:39:27.160Z,38.75
2022-08-14T18:42:23.539Z,38.65
2022-08-14T18:44:51.263Z,38.58
2022-08-14T18:47:22.303Z,38.60
2022-08-14T18:49:52.655Z,38.64
2022-08-14T18:52:22.972Z,38.54
2022-08-14T18:54:59.130Z,38.53
2022-08-14T18:57:40.295Z,38.48
2022-08-14T19:00:32.224Z,38.44
2022-08-14T19:03:05.131Z,38.25
2022-08-14T19:05:47.546Z,38.21
2022-08-14T19:08:17.887Z,38.14
2022-08-14T19:10:49.294Z,37.97
2022-08-14T19:13:48.285Z,37.76
2022-08-14T19:16:26.070Z,37.60
2022-08-14T19:19:00.462Z,37.54
2022-08-14T19:21:31.907Z,37.35
2022-08-14T19:24:04.498Z,37.36
2022-08-14T19:27:11.985Z,37.32
2022-08-14T19:29:39.802Z,37.21
2022-08-14T19:32:39.444Z,37.13
2022-08-14T19:35:48.736Z,36.91
2022-08-14T19:38:54.086Z,36.48
2022-08-14T19:41:25.060Z,36.17
2022-08-14T19:44:31.762Z,36.34
2022-08-14T19:47:04.828Z,35.83
2022-08-14T19:50:08.424Z,36.01
2022-08-14T19:52:37.102Z,36.07
2022-08-14T19:55:16.653Z,35.68
2022-08-14T19:57:43.394Z,35.69
2022-08-14T20:00:29.003Z,35.72
2022-08-14T20:03:01.970Z,35.58
2022-08-14T20:05:46.134Z,35.40
2022-08-14T20:11:02.482Z,35.52
2022-08-14T20:11:20.873Z,35.52
2022-08-14T20:14:00.450Z,35.62
2022-08-14T20:16:36.594Z,35.38
2022-08-14T20:19:22.524Z,35.42
2022-08-14T20:21:58.296Z,35.32
2022-08-14T20:24:41.132Z,34.95
2022-08-14T20:27:38.785Z,34.75
2022-08-14T20:30:29.707Z,34.93
2022-08-14T20:33:02.882Z,35.12
2022-08-14T20:35:36.914Z,35.12
2022-08-14T20:38:29.210Z,35.02
2022-08-14T20:41:12.485Z,35.09
2022-08-14T20:43:59.752Z,35.00
2022-08-14T20:46:38.695Z,34.99
2022-08-14T20:49:10.863Z,35.08
2022-08-14T20:51:54.752Z,34.93
2022-08-14T20:54:34.062Z,35.06
2022-08-14T20:57:13.887Z,35.05
2022-08-14T20:59:43.943Z,34.86
2022-08-14T21:02:50.305Z,35.04
2022-08-14T21:05:21.861Z,34.81
2022-08-14T21:08:08.356Z,34.93
2022-08-14T21:10:48.260Z,34.86
2022-08-14T21:14:08.915Z,34.55
2022-08-14T21:16:05.214Z,34.58
2022-08-14T21:18:55.429Z,34.59
2022-08-14T21:21:41.743Z,34.50
2022-08-14T21:24:22.973Z,34.51
2022-08-14T21:27:12.970Z,34.61
2022-08-14T21:29:53.853Z,34.36
2022-08-14T21:32:50.078Z,34.14
2022-08-14T21:35:24.279Z,34.31
2022-08-14T21:37:52.719Z,34.05
2022-08-14T21:40:42.204Z,34.12
2022-08-14T21:43:18.189Z,33.94
2022-08-14T21:45:53.183Z,33.87
2022-08-14T21:48:26.344Z,33.82
2022-08-14T21:51:01.828Z,33.50
2022-08-14T21:53:58.991Z,33.43
2022-08-14T21:56:37.230Z,33.36
2022-08-14T21:59:08.917Z,32.89
2022-08-14T22:01:59.410Z,33.07
2022-08-14T22:04:33.637Z,32.97
2022-08-14T22:07:03.441Z,32.53
2022-08-14T22:09:36.295Z,32.73
2022-08-14T22:12:07.339Z,32.57
2022-08-14T22:14:43.626Z,32.39
2022-08-14T22:17:16.492Z,32.51
2022-08-14T22:19:54.437Z,32.37
2022-08-14T22:22:24.136Z,32.09
2022-08-14T22:25:00.325Z,32.08
2022-08-14T22:27:30.032Z,32.19
2022-08-14T22:30:01.251Z,32.28
2022-08-14T22:32:56.354Z,32.22
2022-08-14T22:35:16.370Z,32.09
2022-08-14T22:37:44.456Z,31.90
2022-08-14T22:40:48.504Z,31.62
2022-08-14T22:43:08.205Z,31.73
2022-08-14T22:45:37.915Z,31.70
2022-08-14T22:48:10.846Z,31.72
2022-08-14T22:50:48.919Z,32.00
2022-08-14T22:53:20.838Z,32.34
2022-08-14T22:55:51.984Z,32.11
2022-08-14T22:58:30.017Z,32.52
2022-08-14T23:01:00.283Z,32.53
2022-08-14T23:03:27.569Z,32.40
2022-08-14T23:05:55.792Z,32.51
2022-08-14T23:08:58.573Z,32.21
2022-08-14T23:11:10.444Z,32.27
2022-08-14T23:13:40.062Z,32.54
2022-08-14T23:16:10.908Z,32.37
2022-08-14T23:18:47.893Z,32.24
2022-08-14T23:21:22.098Z,32.31
2022-08-14T23:23:54.986Z,32.14
2022-08-14T23:26:48.484Z,32.26
2022-08-14T23:29:12.177Z,32.08
2022-08-14T23:31:39.829Z,32.40
2022-08-14T23:34:10.788Z,32.51
2022-08-14T23:36:54.638Z,32.77
2022-08-14T23:39:30.312Z,32.81
2022-08-14T23:42:02.185Z,32.31
2022-08-14T23:44:32.168Z,32.49
2022-08-14T23:47:05.454Z,32.51
2022-08-14T23:49:55.400Z,32.44
2022-08-14T23:52:55.589Z,32.51
2022-08-14T23:55:12.001Z,32.23
2022-08-14T23:57:43.520Z,32.33
